createdAt,value
2018-02-03T00:02:22.171Z,23.37
2018-02-03T00:04:49.753Z,23.39
2018-02-03T00:07:17.388Z,23.38
2018-02-03T00:09:45.334Z,23.37
2018-02-03T00:12:12.886Z,23.37
2018-02-03T00:14:40.411Z,23.39
2018-02-03T00:17:07.929Z,23.36
2018-02-03T00:19:35.522Z,23.38
2018-02-03T00:22:03.034Z,23.36
2018-02-03T00:24:30.547Z,23.34
2018-02-03T00:26:58.208Z,23.34
2018-02-03T00:29:25.788Z,23.35
2018-02-03T00:31:53.374Z,23.36
2018-02-03T00:34:20.899Z,23.37
2018-02-03T00:36:48.497Z,23.37
2018-02-03T00:39:16.085Z,23.37
2018-02-03T00:41:43.655Z,23.36
2018-02-03T00:44:11.176Z,23.34
2018-02-03T00:46:38.758Z,23.36
2018-02-03T00:49:06.349Z,23.34
2018-02-03T00:51:33.957Z,23.37
2018-02-03T00:54:01.477Z,23.35
2018-02-03T00:56:30.184Z,23.36
2018-02-03T00:58:57.715Z,23.36
2018-02-03T01:01:25.238Z,23.38
2018-02-03T01:03:52.830Z,23.36
2018-02-03T01:06:20.433Z,23.34
2018-02-03T01:08:48.073Z,23.33
2018-02-03T01:11:15.665Z,23.31
2018-02-03T01:13:43.248Z,23.31
2018-02-03T01:16:10.888Z,23.32
2018-02-03T01:18:38.500Z,23.37
2018-02-03T01:21:06.145Z,23.38
2018-02-03T01:23:33.737Z,23.41
2018-02-03T01:26:01.340Z,23.40
2018-02-03T01:28:28.976Z,23.41
2018-02-03T01:30:56.574Z,23.40
2018-02-03T01:33:24.157Z,23.39
2018-02-03T01:35:51.804Z,23.36
2018-02-03T01:38:19.385Z,23.37
2018-02-03T01:40:46.968Z,23.35
2018-02-03T01:43:14.543Z,23.36
2018-02-03T01:45:42.139Z,23.37
2018-02-03T01:48:09.785Z,23.36
2018-02-03T01:50:37.298Z,23.38
2018-02-03T01:53:04.889Z,23.38
2018-02-03T01:55:32.468Z,23.38
2018-02-03T01:58:00.129Z,23.36
2018-02-03T02:00:27.711Z,23.38
2018-02-03T02:02:55.343Z,23.37
2018-02-03T02:05:22.869Z,23.36
2018-02-03T02:07:50.505Z,23.37
2018-02-03T02:10:18.076Z,23.38
2018-02-03T02:12:45.591Z,23.40
2018-02-03T02:15:13.272Z,23.39
2018-02-03T02:17:40.961Z,23.39
2018-02-03T02:20:08.483Z,23.39
2018-02-03T02:22:36.059Z,23.38
2018-02-03T02:25:03.682Z,23.35
2018-02-03T02:27:31.277Z,23.35
2018-02-03T02:29:58.803Z,23.33
2018-02-03T02:32:26.394Z,23.34
2018-02-03T02:34:53.906Z,23.33
2018-02-03T02:37:21.433Z,23.32
2018-02-03T02:39:49.120Z,23.30
2018-02-03T02:42:16.808Z,23.28
2018-02-03T02:44:44.388Z,23.32
2018-02-03T02:47:11.984Z,23.31
2018-02-03T02:49:39.511Z,23.32
2018-02-03T02:52:07.173Z,23.34
2018-02-03T02:54:34.707Z,23.34
2018-02-03T02:57:02.349Z,23.32
2018-02-03T02:59:29.937Z,23.31
2018-02-03T03:01:57.519Z,23.29
2018-02-03T03:04:25.042Z,23.24
2018-02-03T03:06:52.619Z,23.27
2018-02-03T03:09:20.239Z,23.27
2018-02-03T03:11:47.819Z,23.26
2018-02-03T03:14:15.335Z,23.25
2018-02-03T03:16:42.929Z,23.24
2018-02-03T03:19:10.523Z,23.28
2018-02-03T03:21:38.058Z,23.28
2018-02-03T03:24:05.704Z,23.27
2018-02-03T03:26:33.284Z,23.24
2018-02-03T03:29:01.028Z,23.24
2018-02-03T03:31:28.600Z,23.27
2018-02-03T03:33:56.245Z,23.29
2018-02-03T03:36:23.771Z,23.31
2018-02-03T03:38:51.367Z,23.34
2018-02-03T03:41:18.892Z,23.33
2018-02-03T03:43:46.410Z,23.34
2018-02-03T03:46:13.988Z,23.32
2018-02-03T03:48:41.582Z,23.31
2018-02-03T03:51:09.185Z,23.30
2018-02-03T03:53:36.840Z,23.28
2018-02-03T03:56:04.369Z,23.26
2018-02-03T03:58:31.972Z,23.25
2018-02-03T04:00:59.547Z,23.24
2018-02-03T04:03:27.083Z,23.29
2018-02-03T04:05:54.664Z,23.33
2018-02-03T04:08:22.273Z,23.35
2018-02-03T04:10:49.909Z,23.35
2018-02-03T04:13:17.422Z,23.37
2018-02-03T04:15:45.095Z,23.38
2018-02-03T04:18:12.688Z,23.36
2018-02-03T04:20:40.273Z,23.32
2018-02-03T04:23:07.856Z,23.34
2018-02-03T04:25:35.439Z,23.36
2018-02-03T04:28:03.092Z,23.36
2018-02-03T04:30:30.689Z,23.38
2018-02-03T04:32:58.368Z,23.40
2018-02-03T04:35:25.948Z,23.38
2018-02-03T04:37:53.604Z,23.39
2018-02-03T04:40:21.186Z,23.37
2018-02-03T04:42:48.703Z,23.35
2018-02-03T04:45:16.300Z,23.33
2018-02-03T04:47:43.923Z,23.30
2018-02-03T04:50:11.564Z,23.31
2018-02-03T04:52:39.204Z,23.33
2018-02-03T04:55:06.843Z,23.37
2018-02-03T04:57:34.420Z,23.35
2018-02-03T05:00:01.951Z,23.34
2018-02-03T05:02:29.531Z,23.34
2018-02-03T05:04:57.119Z,23.33
2018-02-03T05:07:24.752Z,23.34
2018-02-03T05:09:52.343Z,23.34
2018-02-03T05:12:20.056Z,23.35
2018-02-03T05:14:47.573Z,23.35
2018-02-03T05:17:15.230Z,23.35
2018-02-03T05:19:42.912Z,23.33
2018-02-03T05:22:10.495Z,23.32
2018-02-03T05:24:38.080Z,23.30
2018-02-03T05:27:05.728Z,23.28
2018-02-03T05:29:33.322Z,23.28
2018-02-03T05:32:00.839Z,23.29
2018-02-03T05:34:28.473Z,23.34
2018-02-03T05:36:56.112Z,23.34
2018-02-03T05:39:23.720Z,23.34
2018-02-03T05:41:51.305Z,23.34
2018-02-03T05:44:18.925Z,23.35
2018-02-03T05:46:46.474Z,23.35
2018-02-03T05:49:14.124Z,23.35
2018-02-03T05:51:41.744Z,23.31
2018-02-03T05:54:09.380Z,23.31
2018-02-03T05:56:36.981Z,23.29
2018-02-03T05:59:04.563Z,23.29
2018-02-03T06:01:32.140Z,23.32
2018-02-03T06:03:59.783Z,23.32
2018-02-03T06:06:27.369Z,23.31
2018-02-03T06:08:55.161Z,23.22
2018-02-03T06:11:22.769Z,23.21
2018-02-03T06:13:50.280Z,23.18
2018-02-03T06:16:17.857Z,23.18
2018-02-03T06:18:45.375Z,23.15
2018-02-03T06:21:12.973Z,23.17
2018-02-03T06:23:40.632Z,23.21
2018-02-03T06:26:08.281Z,23.25
2018-02-03T06:28:35.936Z,23.30
2018-02-03T06:31:03.516Z,23.34
2018-02-03T06:33:31.398Z,23.32
2018-02-03T06:35:59.076Z,23.32
2018-02-03T06:38:26.717Z,23.34
2018-02-03T06:40:54.242Z,23.38
2018-02-03T06:43:21.880Z,23.34
2018-02-03T06:45:49.513Z,23.36
2018-02-03T06:48:17.186Z,23.38
2018-02-03T06:50:45.682Z,23.54
2018-02-03T06:53:16.446Z,23.77
2018-02-03T06:55:44.167Z,24.10
2018-02-03T06:58:11.821Z,24.41
2018-02-03T07:00:39.474Z,24.58
2018-02-03T07:03:07.129Z,24.77
2018-02-03T07:05:34.976Z,24.99
2018-02-03T07:08:02.495Z,25.17
2018-02-03T07:10:30.441Z,25.35
2018-02-03T07:12:58.208Z,25.54
2018-02-03T07:15:25.929Z,25.74
2018-02-03T07:17:53.596Z,25.98
2018-02-03T07:20:21.177Z,26.23
2018-02-03T07:22:48.864Z,26.42
2018-02-03T07:25:16.641Z,26.63
2018-02-03T07:27:44.288Z,26.77
2018-02-03T07:30:11.961Z,26.86
2018-02-03T07:32:39.666Z,27.00
2018-02-03T07:35:07.263Z,27.11
2018-02-03T07:37:34.921Z,27.24
2018-02-03T07:40:02.538Z,27.38
2018-02-03T07:42:30.182Z,27.48
2018-02-03T07:44:57.927Z,27.53
2018-02-03T07:47:26.354Z,27.54
2018-02-03T07:49:54.006Z,27.64
2018-02-03T07:52:21.671Z,27.63
2018-02-03T07:54:49.319Z,27.69
2018-02-03T07:57:16.972Z,27.78
2018-02-03T07:59:44.573Z,27.83
2018-02-03T08:02:12.278Z,27.81
2018-02-03T08:04:39.944Z,27.77
2018-02-03T08:07:07.485Z,27.70
2018-02-03T08:09:35.217Z,27.48
2018-02-03T08:12:02.807Z,27.39
2018-02-03T08:14:30.420Z,27.38
2018-02-03T08:16:58.530Z,27.45
2018-02-03T08:19:26.124Z,27.49
2018-02-03T08:21:53.773Z,27.53
2018-02-03T08:24:21.437Z,27.46
2018-02-03T08:26:48.960Z,27.42
2018-02-03T08:29:16.488Z,27.31
2018-02-03T08:31:44.116Z,27.12
2018-02-03T08:34:11.746Z,26.91
2018-02-03T08:36:39.339Z,26.77
2018-02-03T08:39:07.034Z,26.71
2018-02-03T08:41:34.674Z,26.62
2018-02-03T08:44:02.329Z,26.52
2018-02-03T08:46:29.960Z,26.42
2018-02-03T08:48:57.552Z,26.38
2018-02-03T08:51:25.076Z,26.33
2018-02-03T08:53:52.766Z,26.24
2018-02-03T08:56:20.406Z,26.16
2018-02-03T08:58:47.994Z,26.00
2018-02-03T09:01:15.645Z,25.93
2018-02-03T09:03:43.289Z,25.87
2018-02-03T09:06:11.120Z,25.85
2018-02-03T09:08:38.738Z,25.87
2018-02-03T09:11:06.444Z,25.85
2018-02-03T09:13:34.100Z,25.86
2018-02-03T09:16:01.796Z,25.78
2018-02-03T09:18:29.461Z,25.82
2018-02-03T09:20:57.088Z,25.83
2018-02-03T09:23:24.775Z,25.86
2018-02-03T09:25:52.440Z,25.83
2018-02-03T09:28:20.097Z,25.83
2018-02-03T09:30:47.728Z,25.95
2018-02-03T09:33:15.385Z,26.00
2018-02-03T09:35:42.987Z,26.15
2018-02-03T09:38:10.623Z,26.22
2018-02-03T09:40:38.284Z,26.25
2018-02-03T09:43:05.820Z,26.34
2018-02-03T09:45:33.480Z,26.34
2018-02-03T09:48:01.206Z,26.30
2018-02-03T09:50:28.926Z,26.32
2018-02-03T09:52:56.521Z,26.31
2018-02-03T09:55:24.163Z,26.28
2018-02-03T09:57:51.769Z,26.20
2018-02-03T10:00:19.352Z,26.14
2018-02-03T10:02:46.993Z,26.05
2018-02-03T10:05:14.599Z,25.99
2018-02-03T10:07:42.250Z,25.92
2018-02-03T10:10:10.116Z,25.85
2018-02-03T10:12:37.647Z,25.78
2018-02-03T10:15:05.369Z,25.72
2018-02-03T10:17:32.986Z,25.69
2018-02-03T10:20:00.600Z,25.65
2018-02-03T10:22:28.291Z,25.70
2018-02-03T10:24:55.823Z,25.72
2018-02-03T10:27:23.583Z,25.78
2018-02-03T10:29:51.595Z,25.78
2018-02-03T10:32:19.227Z,25.67
2018-02-03T10:34:47.138Z,25.61
2018-02-03T10:37:14.841Z,25.48
2018-02-03T10:39:42.578Z,25.42
2018-02-03T10:42:10.135Z,25.40
2018-02-03T10:44:42.396Z,25.29
2018-02-03T10:47:10.000Z,25.27
2018-02-03T10:49:37.660Z,25.22
2018-02-03T10:52:05.235Z,25.21
2018-02-03T10:54:32.885Z,25.20
2018-02-03T10:57:00.548Z,25.17
2018-02-03T10:59:28.189Z,25.15
2018-02-03T11:01:56.496Z,25.09
2018-02-03T11:04:24.193Z,25.04
2018-02-03T11:06:51.852Z,25.03
2018-02-03T11:09:19.441Z,25.17
2018-02-03T11:11:47.092Z,25.23
2018-02-03T11:14:14.662Z,25.32
2018-02-03T11:16:42.213Z,25.32
2018-02-03T11:19:09.766Z,25.32
2018-02-03T11:21:37.433Z,25.33
2018-02-03T11:24:05.369Z,25.31
2018-02-03T11:26:33.373Z,25.26
2018-02-03T11:29:01.017Z,25.26
2018-02-03T11:31:28.571Z,25.24
2018-02-03T11:33:56.316Z,25.21
2018-02-03T11:36:23.989Z,25.21
2018-02-03T11:38:51.517Z,25.20
2018-02-03T11:41:19.170Z,25.19
2018-02-03T11:43:46.819Z,25.18
2018-02-03T11:46:14.437Z,25.16
2018-02-03T11:48:42.074Z,25.13
2018-02-03T11:51:09.739Z,25.11
2018-02-03T11:53:37.397Z,25.14
2018-02-03T11:56:05.015Z,25.19
2018-02-03T11:58:32.834Z,25.32
2018-02-03T12:01:00.371Z,25.47
2018-02-03T12:03:28.086Z,25.61
2018-02-03T12:05:55.811Z,25.70
2018-02-03T12:08:23.518Z,25.85
2018-02-03T12:10:51.258Z,25.89
2018-02-03T12:13:18.845Z,26.01
2018-02-03T12:15:46.448Z,26.08
2018-02-03T12:18:14.100Z,26.12
2018-02-03T12:20:41.760Z,26.14
2018-02-03T12:23:09.362Z,26.17
2018-02-03T12:25:36.962Z,26.17
2018-02-03T12:28:04.609Z,26.22
2018-02-03T12:30:32.268Z,26.24
2018-02-03T12:32:59.871Z,26.23
2018-02-03T12:35:27.470Z,26.18
2018-02-03T12:37:55.003Z,26.18
2018-02-03T12:40:22.537Z,26.09
2018-02-03T12:42:50.105Z,26.10
2018-02-03T12:45:17.639Z,25.97
2018-02-03T12:47:45.388Z,25.93
2018-02-03T12:50:13.093Z,25.90
2018-02-03T12:52:40.727Z,25.83
2018-02-03T12:55:08.263Z,25.78
2018-02-03T12:57:35.841Z,25.81
2018-02-03T13:00:03.456Z,25.73
2018-02-03T13:02:31.132Z,25.73
2018-02-03T13:04:58.722Z,25.61
2018-02-03T13:07:26.339Z,25.60
2018-02-03T13:09:53.945Z,25.50
2018-02-03T13:12:21.636Z,25.42
2018-02-03T13:14:49.174Z,25.40
2018-02-03T13:17:16.710Z,25.30
2018-02-03T13:19:44.349Z,25.27
2018-02-03T13:22:11.931Z,25.17
2018-02-03T13:24:39.486Z,25.12
2018-02-03T13:27:07.125Z,25.06
2018-02-03T13:29:34.733Z,25.03
2018-02-03T13:32:02.263Z,24.97
2018-02-03T13:34:29.916Z,24.97
2018-02-03T13:36:57.454Z,24.93
2018-02-03T13:39:25.028Z,24.92
2018-02-03T13:41:52.558Z,24.87
2018-02-03T13:44:20.161Z,24.85
2018-02-03T13:46:47.864Z,24.81
2018-02-03T13:49:15.476Z,24.77
2018-02-03T13:51:43.006Z,24.70
2018-02-03T13:54:10.672Z,24.65
2018-02-03T13:56:38.276Z,24.60
2018-02-03T13:59:05.876Z,24.56
2018-02-03T14:01:33.513Z,24.52
2018-02-03T14:04:01.128Z,24.50
2018-02-03T14:06:28.788Z,24.47
2018-02-03T14:08:56.363Z,24.45
2018-02-03T14:11:24.008Z,24.42
2018-02-03T14:13:51.640Z,24.41
2018-02-03T14:16:19.331Z,24.37
2018-02-03T14:18:46.958Z,24.32
2018-02-03T14:21:14.491Z,24.29
2018-02-03T14:23:42.140Z,24.27
2018-02-03T14:26:14.434Z,24.26
2018-02-03T14:28:42.000Z,24.23
2018-02-03T14:31:09.652Z,24.20
2018-02-03T14:33:37.198Z,24.20
2018-02-03T14:36:04.803Z,24.24
2018-02-03T14:38:32.384Z,24.25
2018-02-03T14:41:00.082Z,24.26
2018-02-03T14:43:27.653Z,24.24
2018-02-03T14:45:55.308Z,24.24
2018-02-03T14:48:22.838Z,24.25
2018-02-03T14:50:50.489Z,24.25
2018-02-03T14:53:18.144Z,24.23
2018-02-03T14:55:45.696Z,24.19
2018-02-03T14:58:13.392Z,24.16
2018-02-03T15:00:40.994Z,24.15
2018-02-03T15:03:08.552Z,24.14
2018-02-03T15:05:36.121Z,24.13
2018-02-03T15:08:03.654Z,24.12
2018-02-03T15:10:31.276Z,24.13
2018-02-03T15:12:58.935Z,24.12
2018-02-03T15:15:26.466Z,24.14
2018-02-03T15:17:54.044Z,24.11
2018-02-03T15:20:21.680Z,24.11
2018-02-03T15:22:49.335Z,24.11
2018-02-03T15:25:16.930Z,24.14
2018-02-03T15:27:44.565Z,24.12
2018-02-03T15:30:12.176Z,24.10
2018-02-03T15:32:39.749Z,24.08
2018-02-03T15:35:07.401Z,24.06
2018-02-03T15:37:34.995Z,24.06
2018-02-03T15:40:02.624Z,24.11
2018-02-03T15:42:30.325Z,24.12
2018-02-03T15:44:57.855Z,24.16
2018-02-03T15:47:25.374Z,24.19
2018-02-03T15:49:53.063Z,24.18
2018-02-03T15:52:20.668Z,24.22
2018-02-03T15:54:48.263Z,24.22
2018-02-03T15:57:15.933Z,24.24
2018-02-03T15:59:43.458Z,24.23
2018-02-03T16:02:11.053Z,24.20
2018-02-03T16:04:38.704Z,24.16
2018-02-03T16:07:06.412Z,24.17
2018-02-03T16:09:34.112Z,24.17
2018-02-03T16:12:01.839Z,24.16
2018-02-03T16:14:29.496Z,24.12
2018-02-03T16:16:57.137Z,24.13
2018-02-03T16:19:24.662Z,24.11
2018-02-03T16:21:52.312Z,24.08
2018-02-03T16:24:19.957Z,24.06
2018-02-03T16:26:47.609Z,24.06
2018-02-03T16:29:15.249Z,24.05
2018-02-03T16:31:43.246Z,24.06
2018-02-03T16:34:10.896Z,24.08
2018-02-03T16:36:38.490Z,24.09
2018-02-03T16:39:06.137Z,24.08
2018-02-03T16:41:33.732Z,24.13
2018-02-03T16:44:01.324Z,24.14
2018-02-03T16:46:28.919Z,24.17
2018-02-03T16:48:56.443Z,24.17
2018-02-03T16:51:24.068Z,24.20
2018-02-03T16:53:51.832Z,24.21
2018-02-03T16:56:31.275Z,24.24
2018-02-03T16:58:58.976Z,24.28
2018-02-03T17:01:26.499Z,24.31
2018-02-03T17:03:54.025Z,24.34
2018-02-03T17:06:21.712Z,24.38
2018-02-03T17:08:49.360Z,24.40
2018-02-03T17:11:17.012Z,24.38
2018-02-03T17:13:44.698Z,24.42
2018-02-03T17:16:12.289Z,24.45
2018-02-03T17:18:39.973Z,24.45
2018-02-03T17:21:07.608Z,24.48
2018-02-03T17:23:35.167Z,24.50
2018-02-03T17:26:02.756Z,24.56
2018-02-03T17:28:30.460Z,24.58
2018-02-03T17:30:58.130Z,24.59
2018-02-03T17:33:25.698Z,24.63
2018-02-03T17:35:53.279Z,24.65
2018-02-03T17:38:26.794Z,24.71
2018-02-03T17:40:54.543Z,24.76
2018-02-03T17:43:22.185Z,24.78
2018-02-03T17:48:50.746Z,24.79
2018-02-03T17:51:18.440Z,24.78
2018-02-03T17:53:45.991Z,24.75
2018-02-03T17:56:19.030Z,24.76
2018-02-03T17:58:46.685Z,24.79
2018-02-03T18:01:14.353Z,24.80
2018-02-03T18:03:41.984Z,24.80
2018-02-03T18:06:09.672Z,24.80
2018-02-03T18:08:37.305Z,24.79
2018-02-03T18:11:04.839Z,24.80
2018-02-03T18:13:32.477Z,24.84
2018-02-03T18:16:00.145Z,24.86
2018-02-03T18:18:27.943Z,24.91
2018-02-03T18:20:56.383Z,24.92
2018-02-03T18:23:24.060Z,24.94
2018-02-03T18:25:51.595Z,24.95
2018-02-03T18:28:19.123Z,24.95
2018-02-03T18:30:46.844Z,24.95
2018-02-03T18:33:14.452Z,24.95
2018-02-03T18:35:42.064Z,24.96
2018-02-03T18:38:09.634Z,24.95
2018-02-03T18:40:37.241Z,24.97
2018-02-03T18:43:04.904Z,24.96
2018-02-03T18:45:46.908Z,24.93
2018-02-03T18:48:16.799Z,24.93
2018-02-03T18:50:44.551Z,24.91
2018-02-03T18:53:12.212Z,24.88
2018-02-03T18:55:39.812Z,24.90
2018-02-03T18:58:07.426Z,24.91
2018-02-03T19:00:35.078Z,24.87
2018-02-03T19:03:02.627Z,24.84
2018-02-03T19:05:30.257Z,24.78
2018-02-03T19:07:57.826Z,24.72
2018-02-03T19:10:25.491Z,24.71
2018-02-03T19:12:53.227Z,24.64
2018-02-03T19:15:20.875Z,24.60
2018-02-03T19:17:48.682Z,24.58
2018-02-03T19:20:16.340Z,24.52
2018-02-03T19:22:44.009Z,24.46
2018-02-03T19:25:11.727Z,24.40
2018-02-03T19:27:39.249Z,24.36
2018-02-03T19:30:06.897Z,24.31
2018-02-03T19:32:34.512Z,24.30
2018-02-03T19:35:02.114Z,24.29
2018-02-03T19:37:29.751Z,24.27
2018-02-03T19:39:57.379Z,24.30
2018-02-03T19:42:25.021Z,24.37
2018-02-03T19:44:52.695Z,24.34
2018-02-03T19:47:20.237Z,24.32
2018-02-03T19:49:47.770Z,24.31
2018-02-03T19:52:15.339Z,24.30
2018-02-03T19:54:42.940Z,24.29
2018-02-03T19:57:10.495Z,24.28
2018-02-03T19:59:38.160Z,24.26
2018-02-03T20:02:05.832Z,24.27
2018-02-03T20:04:33.390Z,24.26
2018-02-03T20:07:01.040Z,24.24
2018-02-03T20:09:28.566Z,24.28
2018-02-03T20:17:00.112Z,24.25
2018-02-03T20:19:28.828Z,24.26
2018-02-03T20:21:56.551Z,24.27
2018-02-03T20:24:24.224Z,24.29
2018-02-03T20:26:52.470Z,24.28
2018-02-03T20:29:20.233Z,24.27
2018-02-03T20:31:47.836Z,24.28
2018-02-03T20:34:15.543Z,24.26
2018-02-03T20:36:43.172Z,24.27
2018-02-03T20:39:10.794Z,24.22
2018-02-03T20:41:38.485Z,24.20
2018-02-03T20:44:06.118Z,24.16
2018-02-03T20:46:33.718Z,24.12
2018-02-03T20:49:01.307Z,24.11
2018-02-03T20:51:28.836Z,24.08
2018-02-03T20:53:56.486Z,24.08
2018-02-03T20:56:24.120Z,24.08
2018-02-03T20:58:51.642Z,24.04
2018-02-03T21:01:19.401Z,23.99
2018-02-03T21:03:47.004Z,23.97
2018-02-03T21:06:14.621Z,23.96
2018-02-03T21:08:42.340Z,23.96
2018-02-03T21:11:09.980Z,23.92
2018-02-03T21:13:37.586Z,23.94
2018-02-03T21:16:05.305Z,23.94
2018-02-03T21:18:32.905Z,23.90
2018-02-03T21:21:00.513Z,23.88
2018-02-03T21:23:28.087Z,23.86
2018-02-03T21:25:55.813Z,23.86
2018-02-03T21:28:23.462Z,23.82
2018-02-03T21:30:51.079Z,23.80
2018-02-03T21:33:18.604Z,23.76
2018-02-03T21:35:46.147Z,23.74
2018-02-03T21:38:13.872Z,23.71
2018-02-03T21:40:41.404Z,23.72
2018-02-03T21:43:08.990Z,23.70
2018-02-03T21:45:36.645Z,23.68
2018-02-03T21:48:04.252Z,23.65
2018-02-03T21:50:31.791Z,23.65
2018-02-03T21:52:59.480Z,23.63
2018-02-03T21:55:27.343Z,23.59
2018-02-03T21:57:54.953Z,23.58
2018-02-03T22:00:22.667Z,23.57
2018-02-03T22:02:50.373Z,23.54
2018-02-03T22:05:18.000Z,23.53
2018-02-03T22:07:45.907Z,23.49
2018-02-03T22:10:13.683Z,23.46
2018-02-03T22:12:41.516Z,23.46
2018-02-03T22:15:09.165Z,23.46
2018-02-03T22:17:36.851Z,23.45
2018-02-03T22:20:04.452Z,23.43
2018-02-03T22:22:32.185Z,23.43
2018-02-03T22:24:59.800Z,23.41
2018-02-03T22:27:27.336Z,23.43
2018-02-03T22:29:54.934Z,23.42
2018-02-03T22:32:22.553Z,23.39
2018-02-03T22:34:50.084Z,23.40
2018-02-03T22:37:17.671Z,23.39
2018-02-03T22:39:45.320Z,23.38
2018-02-03T22:42:13.004Z,23.39
2018-02-03T22:44:40.761Z,23.39
2018-02-03T22:47:08.349Z,23.42
2018-02-03T22:49:36.019Z,23.40
2018-02-03T22:52:03.628Z,23.40
2018-02-03T22:54:31.277Z,23.41
2018-02-03T22:56:58.933Z,23.40
2018-02-03T22:59:26.531Z,23.42
2018-02-03T23:01:54.054Z,23.41
2018-02-03T23:04:21.709Z,23.42
2018-02-03T23:06:49.348Z,23.39
2018-02-03T23:09:16.960Z,23.40
2018-02-03T23:11:44.773Z,23.39
2018-02-03T23:14:12.355Z,23.41
2018-02-03T23:16:39.971Z,23.39
2018-02-03T23:19:07.641Z,23.39
2018-02-03T23:21:35.276Z,23.40
2018-02-03T23:24:03.140Z,23.36
2018-02-03T23:26:30.735Z,23.37
2018-02-03T23:28:58.370Z,23.33
2018-02-03T23:31:25.964Z,23.33
2018-02-03T23:33:53.555Z,23.32
2018-02-03T23:36:21.190Z,23.34
2018-02-03T23:38:48.817Z,23.31
2018-02-03T23:41:16.418Z,23.30
2018-02-03T23:43:44.052Z,23.30
2018-02-03T23:46:11.928Z,23.29
2018-02-03T23:48:39.479Z,23.27
2018-02-03T23:51:07.210Z,23.27
2018-02-03T23:53:34.733Z,23.25
2018-02-03T23:56:02.377Z,23.26
2018-02-03T23:58:30.951Z,23.31
